Amunt
Inicio > meteoXarxa
Fes-te'n soci

METEOXARXA

Almenara
Ubicació Platja Casablanca
Comarca la Plana Baixa
Altitud (msnm) 12
Posició geogràfica 39° 43' 52.82" N, 00° 11' 5.08" W
Model Oregon WMR100
Presa de dades
Font de les dades El temps. Almenara
Estadístiques. Resum
Data Temperatura (ºC) Humitat (%) Pressió (hPa) Vent (km/h) Precipit. (mm)
Mínima Mitjana Màxima Mínima Mitjana Màxima Mínima Mitjana Màxima Predom. Mitjana Ràfega màxima Total Dies de pluja
Mínima Mitjana Màxima Mínima Mitjana Màxima
Últimes dades diàries
16-01-2017 10,1     14,3     18,5 33,0 41,0 49,0 1.012,0 1.016,0 1.020,0 37,0 0,0  
15-01-2017 5,1     10,3     15,5 29,0 37,5 46,0 1.019,0 1.021,0 1.023,0 40,0 0,0  
14-01-2017 6,9     10,3     13,8 21,0 30,5 40,0 1.019,0 1.021,5 1.024,0 42,0 0,0  
13-01-2017 8,6     12,4     16,2 27,0 43,5 60,0 1.013,0 1.017,0 1.021,0 53,0 0,0  
12-01-2017 4,7     13,4     22,1 51,0 66,5 82,0 1.014,0 1.018,0 1.022,0 32,0 0,0  
11-01-2017 7,7     11,3     14,9 45,0 60,0 75,0 1.011,0 1.016,5 1.022,0 28,0 0,0  
10-01-2017 5,7     10,8     15,9 41,0 61,5 82,0 1.008,0 1.013,5 1.019,0 38,0 0,0  
09-01-2017 0,0     6,9     13,8 56,0 70,0 84,0 1.019,0 1.021,0 1.023,0 25,0 0,0  
06-01-2017 4,6     9,1     13,6 53,0 66,5 80,0 1.023,0 1.025,0 1.027,0 14,0 0,0  
05-01-2017 6,6     10,8     15,0 52,0 68,5 85,0 1.016,0 1.019,5 1.023,0 20,0 0,0  
04-01-2017 6,6     10,8     14,9 72,0 84,0 96,0 1.018,0 1.019,5 1.021,0 21,0 0,0  
03-01-2017 4,0     8,9     13,8 71,0 80,0 89,0 1.017,0 1.019,0 1.021,0 10,0 0,0  
02-01-2017 3,2     8,1     13,0 59,0 69,0 79,0 1.017,0 1.018,5 1.020,0 21,0 0,0  
01-01-2017 4,2     9,8     15,5 54,0 67,0 80,0 1.018,0 1.023,0 1.028,0 29,0 0,0  
31-12-2016 6,7     10,2     13,8 58,0 70,0 82,0 1.027,0 1.029,0 1.031,0 17,0 0,0  
30-12-2016 3,9     8,7     13,5 58,0 70,0 82,0 1.030,0 1.031,5 1.033,0 15,0 0,0  
29-12-2016 4,4     8,9     13,4 53,0 68,0 83,0 1.029,0 1.031,0 1.033,0 15,0 0,0  
28-12-2016 5,9     10,5     15,1 55,0 72,0 89,0 1.032,0 1.033,0 1.034,0 19,0 0,0  
27-12-2016 6,1     10,4     14,7 75,0 83,0 91,0 1.029,0 1.031,0 1.033,0 15,0 0,0  
26-12-2016 6,1     10,5     14,9 61,0 76,5 92,0 1.027,0 1.028,0 1.029,0 14,0 0,0  
25-12-2016 7,8     11,6     15,4 63,0 72,0 81,0 1.027,0 1.030,5 1.034,0 16,0 0,0  
24-12-2016 8,4     12,2     16,1 64,0 73,5 83,0 1.032,0 1.033,5 1.035,0 20,0 0,0  
23-12-2016 7,5     11,7     15,8 70,0 76,0 82,0 1.031,0 1.032,5 1.034,0 18,0 0,0  
22-12-2016 8,1     12,4     16,7 55,0 66,0 77,0 1.026,0 1.029,5 1.033,0 15,0 0,0  
21-12-2016 6,5     11,6     16,7 50,0 60,5 71,0 1.018,0 1.022,5 1.027,0 14,0 0,0  
20-12-2016 9,5     12,7     15,9 50,0 63,0 76,0 1.010,0 1.014,0 1.018,0 28,0 0,0  
19-12-2016 9,2     10,1     11,0 63,0 76,0 89,0 1.009,0 1.013,5 1.018,0 57,0 29,1  
18-12-2016 9,8     10,9     12,1 63,0 77,0 91,0 1.018,0 1.024,0 1.030,0 44,0 42,8  
17-12-2016 11,7     13,9     16,2 62,0 78,5 95,0 1.021,0 1.025,5 1.030,0 60,0 23,3  
16-12-2016 10,1     12,8     15,5 69,0 80,5 92,0 1.014,0 1.017,5 1.021,0 39,0 13,7  
15-12-2016 6,9     10,7     14,4 65,0 77,0 89,0 1.017,0 1.018,5 1.020,0 14,0 3,1  
14-12-2016 6,0     10,2     14,3 68,0 77,5 87,0 1.018,0 1.020,5 1.023,0 17,0 0,0  
Dades del mes en curs (actualitzades fins l'últim dia disponible)
01/2017 0,0 5,6 10,1 10,5 13,0 15,5 22,1 21,0 60,4 96,0 1.008,0 1.019,2 1.028,0   53,0 0,0  
Últimes dades mensuals
12/2016 3,9 8,4 15,0 11,9 11,0 15,3 17,3 60,5 75,7 86,5 1.012,0 1.024,4 1.033,5 60,0 125,5 7
11/2016 6,7 10,3 16,3 14,2 9,4 18,1 25,6 38,0 65,4 82,0 1.001,0 1.013,8 1.027,0 79,0 98,1 7
10/2016 10,6 16,1 19,2 19,2 19,6 22,3 24,3 54,0 77,3 88,5 999,5 1.015,1 1.028,0 33,0 12,2 8
09/2016 13,6 18,9 23,8 22,6 18,7 26,2 30,4 40,5 68,6 79,5 1.010,5 1.016,5 1.024,0 49,0 14,0 4
08/2016 17,2 20,9 24,7 24,2 25,1 27,5 32,2 59,5 72,6 84,0 1.009,0 1.017,1 1.023,0 38,0 9,8 5
07/2016 17,1 20,7 23,2 23,8 24,2 26,9 29,1 53,0 70,6 83,5 1.012,0 1.016,2 1.020,5 42,0 2,5 2
06/2016 13,8 17,8 22,1 21,1 21,0 24,3 32,4 36,5 69,9 83,0 1.001,0 1.014,6 1.022,5 52,0 1,4 1
05/2016 9,1 13,9 18,1 17,3 17,2 20,7 31,3 39,5 69,3 91,0 1.003,0 1.012,7 1.020,5 50,0 25,4 7
04/2016 6,3 11,3 15,1 15,0 15,0 18,7 26,7 41,0 67,1 83,5 1.003,5 1.011,6 1.017,5 44,0 18,0 8
03/2016 5,4 9,3 13,6 13,3 12,8 17,3 24,0 51,5 67,2 86,5 1.004,0 1.012,8 1.018,5 51,0 1,7 2
Dades de l'any en curs (actualitzades fins l'últim dia disponible)
2017 0,0 5,6 10,1 10,5 13,0 15,5 22,1 21,0 60,4 96,0 1.008,0 1.019,2 1.028,0   53,0 0,0  
Últimes dades anuals